sensor_id;sensor_type;location;lat;lon;timestamp;temperature;humidity
46400;DHT22;32104;50.838;4.388;2023-03-11T00:01:56;3.40;99.90
46400;DHT22;32104;50.838;4.388;2023-03-11T00:04:51;3.50;99.90
46400;DHT22;32104;50.838;4.388;2023-03-11T00:07:19;3.40;99.90
46400;DHT22;32104;50.838;4.388;2023-03-11T00:10:30;3.40;99.90
46400;DHT22;32104;50.838;4.388;2023-03-11T00:12:56;3.30;99.90
46400;DHT22;32104;50.838;4.388;2023-03-11T00:15:31;3.40;99.90
46400;DHT22;32104;50.838;4.388;2023-03-11T00:18:06;3.30;99.90
46400;DHT22;32104;50.838;4.388;2023-03-11T00:20:35;3.30;99.90
46400;DHT22;32104;50.838;4.388;2023-03-11T00:23:06;3.30;99.90
46400;DHT22;32104;50.838;4.388;2023-03-11T00:25:55;3.40;99.90
46400;DHT22;32104;50.838;4.388;2023-03-11T00:28:28;3.40;99.90
46400;DHT22;32104;50.838;4.388;2023-03-11T00:31:15;3.30;99.90
46400;DHT22;32104;50.838;4.388;2023-03-11T00:33:42;3.30;99.90
46400;DHT22;32104;50.838;4.388;2023-03-11T00:36:39;3.40;99.90
46400;DHT22;32104;50.838;4.388;2023-03-11T00:39:13;3.40;99.90
46400;DHT22;32104;50.838;4.388;2023-03-11T00:41:47;3.40;99.90
46400;DHT22;32104;50.838;4.388;2023-03-11T00:44:18;3.30;99.90
46400;DHT22;32104;50.838;4.388;2023-03-11T00:46:46;3.20;99.90
46400;DHT22;32104;50.838;4.388;2023-03-11T00:49:14;3.20;99.90
46400;DHT22;32104;50.838;4.388;2023-03-11T00:51:43;3.10;99.90
46400;DHT22;32104;50.838;4.388;2023-03-11T00:54:19;3.10;99.90
46400;DHT22;32104;50.838;4.388;2023-03-11T00:56:59;3.00;99.90
46400;DHT22;32104;50.838;4.388;2023-03-11T00:59:46;3.10;99.90
46400;DHT22;32104;50.838;4.388;2023-03-11T01:02:22;3.00;99.90
46400;DHT22;32104;50.838;4.388;2023-03-11T01:05:11;3.10;99.90
46400;DHT22;32104;50.838;4.388;2023-03-11T01:07:51;3.10;99.90
46400;DHT22;32104;50.838;4.388;2023-03-11T01:10:23;3.10;99.90
46400;DHT22;32104;50.838;4.388;2023-03-11T01:13:28;3.10;99.90
46400;DHT22;32104;50.838;4.388;2023-03-11T01:16:27;3.20;99.90
46400;DHT22;32104;50.838;4.388;2023-03-11T01:18:59;3.00;99.90
46400;DHT22;32104;50.838;4.388;2023-03-11T01:21:28;3.10;99.90
46400;DHT22;32104;50.838;4.388;2023-03-11T01:24:02;3.10;99.90
46400;DHT22;32104;50.838;4.388;2023-03-11T01:26:28;3.00;99.90
46400;DHT22;32104;50.838;4.388;2023-03-11T01:28:58;2.90;99.90
46400;DHT22;32104;50.838;4.388;2023-03-11T01:31:43;3.00;99.90
46400;DHT22;32104;50.838;4.388;2023-03-11T01:34:11;2.90;99.90
46400;DHT22;32104;50.838;4.388;2023-03-11T01:36:37;2.90;99.90
46400;DHT22;32104;50.838;4.388;2023-03-11T01:39:04;2.90;99.90
46400;DHT22;32104;50.838;4.388;2023-03-11T01:41:30;2.90;99.90
46400;DHT22;32104;50.838;4.388;2023-03-11T01:43:56;3.00;99.90
46400;DHT22;32104;50.838;4.388;2023-03-11T01:49:26;3.00;99.90
46400;DHT22;32104;50.838;4.388;2023-03-11T01:52:08;3.10;99.90
46400;DHT22;32104;50.838;4.388;2023-03-11T01:54:38;3.20;99.90
46400;DHT22;32104;50.838;4.388;2023-03-11T01:57:10;3.20;99.90
46400;DHT22;32104;50.838;4.388;2023-03-11T01:59:45;3.30;99.90
46400;DHT22;32104;50.838;4.388;2023-03-11T02:02:50;3.30;99.90
46400;DHT22;32104;50.838;4.388;2023-03-11T02:05:23;3.30;99.90
46400;DHT22;32104;50.838;4.388;2023-03-11T02:07:51;3.30;99.90
46400;DHT22;32104;50.838;4.388;2023-03-11T02:10:46;3.30;99.90
46400;DHT22;32104;50.838;4.388;2023-03-11T02:13:34;3.20;99.90
46400;DHT22;32104;50.838;4.388;2023-03-11T02:16:10;3.30;99.90
46400;DHT22;32104;50.838;4.388;2023-03-11T02:18:38;3.40;99.90
46400;DHT22;32104;50.838;4.388;2023-03-11T02:21:18;3.40;99.90
46400;DHT22;32104;50.838;4.388;2023-03-11T02:24:20;3.30;99.90
46400;DHT22;32104;50.838;4.388;2023-03-11T02:27:15;3.30;99.90
46400;DHT22;32104;50.838;4.388;2023-03-11T02:29:44;3.30;99.90
46400;DHT22;32104;50.838;4.388;2023-03-11T02:32:17;3.40;99.90
46400;DHT22;32104;50.838;4.388;2023-03-11T02:34:44;3.40;99.90
46400;DHT22;32104;50.838;4.388;2023-03-11T02:37:16;3.50;99.90
46400;DHT22;32104;50.838;4.388;2023-03-11T02:39:54;3.40;99.90
46400;DHT22;32104;50.838;4.388;2023-03-11T02:42:50;3.40;99.90
46400;DHT22;32104;50.838;4.388;2023-03-11T02:45:18;3.30;99.90
46400;DHT22;32104;50.838;4.388;2023-03-11T02:47:48;3.40;99.90
46400;DHT22;32104;50.838;4.388;2023-03-11T02:50:28;3.40;99.90
46400;DHT22;32104;50.838;4.388;2023-03-11T02:53:00;3.50;99.90
46400;DHT22;32104;50.838;4.388;2023-03-11T02:55:26;3.30;99.90
46400;DHT22;32104;50.838;4.388;2023-03-11T02:58:10;3.30;99.90
46400;DHT22;32104;50.838;4.388;2023-03-11T03:00:39;3.40;99.90
46400;DHT22;32104;50.838;4.388;2023-03-11T03:03:29;3.30;99.90
46400;DHT22;32104;50.838;4.388;2023-03-11T03:20:39;3.40;99.90
46400;DHT22;32104;50.838;4.388;2023-03-11T03:23:20;3.40;99.90
46400;DHT22;32104;50.838;4.388;2023-03-11T03:25:49;3.30;99.90
46400;DHT22;32104;50.838;4.388;2023-03-11T03:28:21;3.20;99.90
46400;DHT22;32104;50.838;4.388;2023-03-11T03:30:47;3.20;99.90
46400;DHT22;32104;50.838;4.388;2023-03-11T03:33:22;3.20;99.90
46400;DHT22;32104;50.838;4.388;2023-03-11T03:35:50;3.30;99.90
46400;DHT22;32104;50.838;4.388;2023-03-11T03:38:24;3.40;99.90
46400;DHT22;32104;50.838;4.388;2023-03-11T03:40:52;3.50;99.90
46400;DHT22;32104;50.838;4.388;2023-03-11T03:43:18;3.60;99.90
46400;DHT22;32104;50.838;4.388;2023-03-11T03:45:59;3.70;99.90
46400;DHT22;32104;50.838;4.388;2023-03-11T03:48:30;3.70;99.90
46400;DHT22;32104;50.838;4.388;2023-03-11T03:51:05;3.80;99.90
46400;DHT22;32104;50.838;4.388;2023-03-11T03:53:42;3.80;99.90
46400;DHT22;32104;50.838;4.388;2023-03-11T03:56:11;3.90;99.90
46400;DHT22;32104;50.838;4.388;2023-03-11T03:58:42;3.80;99.90
46400;DHT22;32104;50.838;4.388;2023-03-11T04:01:32;3.50;99.90
46400;DHT22;32104;50.838;4.388;2023-03-11T04:04:04;3.60;99.90
46400;DHT22;32104;50.838;4.388;2023-03-11T04:06:35;3.50;99.90
46400;DHT22;32104;50.838;4.388;2023-03-11T04:09:21;3.50;99.90
46400;DHT22;32104;50.838;4.388;2023-03-11T04:11:54;3.50;99.90
46400;DHT22;32104;50.838;4.388;2023-03-11T04:14:30;3.40;99.90
46400;DHT22;32104;50.838;4.388;2023-03-11T04:17:43;3.50;99.90
46400;DHT22;32104;50.838;4.388;2023-03-11T04:20:11;3.50;99.90
46400;DHT22;32104;50.838;4.388;2023-03-11T04:22:57;3.50;99.90
46400;DHT22;32104;50.838;4.388;2023-03-11T04:25:26;3.50;99.90
46400;DHT22;32104;50.838;4.388;2023-03-11T04:27:52;3.50;99.90
46400;DHT22;32104;50.838;4.388;2023-03-11T04:30:18;3.40;99.90
46400;DHT22;32104;50.838;4.388;2023-03-11T04:32:46;3.30;99.90
46400;DHT22;32104;50.838;4.388;2023-03-11T04:35:12;3.10;99.90
46400;DHT22;32104;50.838;4.388;2023-03-11T04:37:53;3.10;99.90
46400;DHT22;32104;50.838;4.388;2023-03-11T04:40:21;3.10;99.90
46400;DHT22;32104;50.838;4.388;2023-03-11T04:42:50;3.20;99.90
46400;DHT22;32104;50.838;4.388;2023-03-11T04:45:21;3.10;99.90
46400;DHT22;32104;50.838;4.388;2023-03-11T04:47:55;3.10;99.90
46400;DHT22;32104;50.838;4.388;2023-03-11T04:50:22;3.20;99.90
46400;DHT22;32104;50.838;4.388;2023-03-11T04:52:48;3.30;99.90
46400;DHT22;32104;50.838;4.388;2023-03-11T04:55:16;3.40;99.90
46400;DHT22;32104;50.838;4.388;2023-03-11T04:57:45;3.40;99.90
46400;DHT22;32104;50.838;4.388;2023-03-11T05:00:11;3.30;99.90
46400;DHT22;32104;50.838;4.388;2023-03-11T05:02:49;3.30;99.90
46400;DHT22;32104;50.838;4.388;2023-03-11T05:05:26;3.20;99.90
46400;DHT22;32104;50.838;4.388;2023-03-11T05:07:53;3.30;99.90
46400;DHT22;32104;50.838;4.388;2023-03-11T05:10:20;3.20;99.90
46400;DHT22;32104;50.838;4.388;2023-03-11T05:13:11;3.10;99.90
46400;DHT22;32104;50.838;4.388;2023-03-11T05:15:46;3.00;99.90
46400;DHT22;32104;50.838;4.388;2023-03-11T05:18:26;3.10;99.90
46400;DHT22;32104;50.838;4.388;2023-03-11T05:21:00;3.10;99.90
46400;DHT22;32104;50.838;4.388;2023-03-11T05:23:40;2.90;99.90
46400;DHT22;32104;50.838;4.388;2023-03-11T05:26:13;2.90;99.90
46400;DHT22;32104;50.838;4.388;2023-03-11T05:28:44;2.90;99.90
46400;DHT22;32104;50.838;4.388;2023-03-11T05:31:12;2.80;99.90
46400;DHT22;32104;50.838;4.388;2023-03-11T05:33:41;2.90;99.90
46400;DHT22;32104;50.838;4.388;2023-03-11T05:36:08;2.90;99.90
46400;DHT22;32104;50.838;4.388;2023-03-11T05:38:37;2.90;99.90
46400;DHT22;32104;50.838;4.388;2023-03-11T05:41:05;2.80;99.90
46400;DHT22;32104;50.838;4.388;2023-03-11T05:43:36;2.90;99.90
46400;DHT22;32104;50.838;4.388;2023-03-11T05:46:02;2.90;99.90
46400;DHT22;32104;50.838;4.388;2023-03-11T05:48:40;2.90;99.90
46400;DHT22;32104;50.838;4.388;2023-03-11T05:51:10;2.90;99.90
46400;DHT22;32104;50.838;4.388;2023-03-11T05:53:36;2.80;99.90
46400;DHT22;32104;50.838;4.388;2023-03-11T05:56:07;2.80;99.90
46400;DHT22;32104;50.838;4.388;2023-03-11T05:58:38;2.80;99.90
46400;DHT22;32104;50.838;4.388;2023-03-11T06:01:18;2.80;99.90
46400;DHT22;32104;50.838;4.388;2023-03-11T06:03:50;2.70;99.90
46400;DHT22;32104;50.838;4.388;2023-03-11T06:06:17;2.60;99.90
46400;DHT22;32104;50.838;4.388;2023-03-11T06:09:02;2.60;99.90
46400;DHT22;32104;50.838;4.388;2023-03-11T06:11:42;2.70;99.90
46400;DHT22;32104;50.838;4.388;2023-03-11T06:14:13;2.80;99.90
46400;DHT22;32104;50.838;4.388;2023-03-11T06:16:40;2.80;99.90
46400;DHT22;32104;50.838;4.388;2023-03-11T06:19:16;2.80;99.90
46400;DHT22;32104;50.838;4.388;2023-03-11T06:21:54;2.80;99.90
46400;DHT22;32104;50.838;4.388;2023-03-11T06:24:39;2.90;99.90
46400;DHT22;32104;50.838;4.388;2023-03-11T06:27:07;3.00;99.90
46400;DHT22;32104;50.838;4.388;2023-03-11T06:29:34;3.00;99.90
46400;DHT22;32104;50.838;4.388;2023-03-11T06:32:01;3.00;99.90
46400;DHT22;32104;50.838;4.388;2023-03-11T06:34:51;3.20;99.90
46400;DHT22;32104;50.838;4.388;2023-03-11T06:37:19;3.20;99.90
46400;DHT22;32104;50.838;4.388;2023-03-11T06:39:54;3.10;99.90
46400;DHT22;32104;50.838;4.388;2023-03-11T06:42:27;3.10;99.90
46400;DHT22;32104;50.838;4.388;2023-03-11T06:44:53;3.10;99.90
46400;DHT22;32104;50.838;4.388;2023-03-11T06:47:19;3.20;99.90
46400;DHT22;32104;50.838;4.388;2023-03-11T06:49:49;3.20;99.90
46400;DHT22;32104;50.838;4.388;2023-03-11T06:52:21;3.10;99.90
46400;DHT22;32104;50.838;4.388;2023-03-11T06:54:59;3.10;99.90
46400;DHT22;32104;50.838;4.388;2023-03-11T06:57:41;3.10;99.90
46400;DHT22;32104;50.838;4.388;2023-03-11T07:00:09;3.10;99.90
46400;DHT22;32104;50.838;4.388;2023-03-11T07:06:12;3.10;99.90
46400;DHT22;32104;50.838;4.388;2023-03-11T07:09:17;3.20;99.90
46400;DHT22;32104;50.838;4.388;2023-03-11T07:12:13;3.30;99.90
46400;DHT22;32104;50.838;4.388;2023-03-11T07:14:58;3.30;99.90
46400;DHT22;32104;50.838;4.388;2023-03-11T07:28:11;3.50;99.90
46400;DHT22;32104;50.838;4.388;2023-03-11T07:30:58;3.50;99.90
46400;DHT22;32104;50.838;4.388;2023-03-11T07:33:48;3.50;99.90
46400;DHT22;32104;50.838;4.388;2023-03-11T07:36:36;3.50;99.90
46400;DHT22;32104;50.838;4.388;2023-03-11T07:43:19;3.70;99.90
46400;DHT22;32104;50.838;4.388;2023-03-11T07:46:07;3.70;99.90
46400;DHT22;32104;50.838;4.388;2023-03-11T07:48:49;3.80;99.90
46400;DHT22;32104;50.838;4.388;2023-03-11T07:51:41;3.70;99.90
46400;DHT22;32104;50.838;4.388;2023-03-11T07:54:11;3.80;99.90
46400;DHT22;32104;50.838;4.388;2023-03-11T07:57:41;3.90;99.90
46400;DHT22;32104;50.838;4.388;2023-03-11T08:00:09;4.00;99.90
46400;DHT22;32104;50.838;4.388;2023-03-11T08:02:44;4.00;99.90
46400;DHT22;32104;50.838;4.388;2023-03-11T08:05:12;4.00;99.90
46400;DHT22;32104;50.838;4.388;2023-03-11T08:07:41;4.10;99.90
46400;DHT22;32104;50.838;4.388;2023-03-11T08:10:19;4.00;99.90
46400;DHT22;32104;50.838;4.388;2023-03-11T08:13:05;4.10;99.90
46400;DHT22;32104;50.838;4.388;2023-03-11T08:15:35;4.20;99.90
46400;DHT22;32104;50.838;4.388;2023-03-11T08:18:04;4.30;99.90
46400;DHT22;32104;50.838;4.388;2023-03-11T08:20:40;4.40;99.90
46400;DHT22;32104;50.838;4.388;2023-03-11T08:23:20;4.50;99.90
46400;DHT22;32104;50.838;4.388;2023-03-11T08:26:08;4.60;99.90
46400;DHT22;32104;50.838;4.388;2023-03-11T08:28:35;4.70;99.90
46400;DHT22;32104;50.838;4.388;2023-03-11T08:31:33;4.70;99.90
46400;DHT22;32104;50.838;4.388;2023-03-11T08:34:19;4.70;99.90
46400;DHT22;32104;50.838;4.388;2023-03-11T08:36:46;4.70;99.90
46400;DHT22;32104;50.838;4.388;2023-03-11T08:39:14;4.70;99.90
46400;DHT22;32104;50.838;4.388;2023-03-11T08:41:41;4.70;99.90
46400;DHT22;32104;50.838;4.388;2023-03-11T08:44:13;4.80;99.90
46400;DHT22;32104;50.838;4.388;2023-03-11T08:46:56;4.80;99.90
46400;DHT22;32104;50.838;4.388;2023-03-11T08:49:24;4.70;99.90
46400;DHT22;32104;50.838;4.388;2023-03-11T08:51:51;4.90;99.90
46400;DHT22;32104;50.838;4.388;2023-03-11T08:54:20;5.00;99.90
46400;DHT22;32104;50.838;4.388;2023-03-11T08:56:56;5.10;99.90
46400;DHT22;32104;50.838;4.388;2023-03-11T08:59:31;5.10;99.90
46400;DHT22;32104;50.838;4.388;2023-03-11T09:01:57;5.20;99.90
46400;DHT22;32104;50.838;4.388;2023-03-11T09:04:23;5.30;99.90
46400;DHT22;32104;50.838;4.388;2023-03-11T09:07:28;5.40;99.90
46400;DHT22;32104;50.838;4.388;2023-03-11T09:09:56;5.40;99.90
46400;DHT22;32104;50.838;4.388;2023-03-11T09:12:25;5.50;99.90
46400;DHT22;32104;50.838;4.388;2023-03-11T09:14:51;5.50;99.90
46400;DHT22;32104;50.838;4.388;2023-03-11T09:17:17;5.70;99.90
46400;DHT22;32104;50.838;4.388;2023-03-11T09:19:43;5.80;99.90
46400;DHT22;32104;50.838;4.388;2023-03-11T09:22:11;5.80;99.90
46400;DHT22;32104;50.838;4.388;2023-03-11T09:24:37;6.00;99.90
46400;DHT22;32104;50.838;4.388;2023-03-11T09:27:03;5.90;99.90
46400;DHT22;32104;50.838;4.388;2023-03-11T09:29:29;6.00;99.90
46400;DHT22;32104;50.838;4.388;2023-03-11T09:31:56;6.10;99.90
46400;DHT22;32104;50.838;4.388;2023-03-11T09:34:40;6.30;99.90
46400;DHT22;32104;50.838;4.388;2023-03-11T09:37:10;6.40;99.90
46400;DHT22;32104;50.838;4.388;2023-03-11T09:39:42;6.50;99.90
46400;DHT22;32104;50.838;4.388;2023-03-11T09:42:35;6.60;99.90
46400;DHT22;32104;50.838;4.388;2023-03-11T09:45:17;6.70;99.90
46400;DHT22;32104;50.838;4.388;2023-03-11T09:48:11;6.60;99.90
46400;DHT22;32104;50.838;4.388;2023-03-11T09:50:49;6.60;99.90
46400;DHT22;32104;50.838;4.388;2023-03-11T09:53:41;6.80;99.90
46400;DHT22;32104;50.838;4.388;2023-03-11T09:56:28;7.10;99.90
46400;DHT22;32104;50.838;4.388;2023-03-11T09:59:00;7.30;99.90
46400;DHT22;32104;50.838;4.388;2023-03-11T10:01:41;7.50;99.90
46400;DHT22;32104;50.838;4.388;2023-03-11T10:07:11;7.70;99.90
46400;DHT22;32104;50.838;4.388;2023-03-11T10:09:57;7.70;99.90
46400;DHT22;32104;50.838;4.388;2023-03-11T10:15:30;7.70;99.90
46400;DHT22;32104;50.838;4.388;2023-03-11T10:18:18;7.70;99.90
46400;DHT22;32104;50.838;4.388;2023-03-11T10:23:58;8.00;99.90
46400;DHT22;32104;50.838;4.388;2023-03-11T10:33:06;8.00;99.90
46400;DHT22;32104;50.838;4.388;2023-03-11T10:35:57;8.20;99.90
46400;DHT22;32104;50.838;4.388;2023-03-11T10:38:54;8.20;99.90
46400;DHT22;32104;50.838;4.388;2023-03-11T10:44:37;8.00;99.90
46400;DHT22;32104;50.838;4.388;2023-03-11T10:47:23;7.90;99.90
46400;DHT22;32104;50.838;4.388;2023-03-11T10:49:59;7.70;99.90
46400;DHT22;32104;50.838;4.388;2023-03-11T10:56:39;7.70;99.90
46400;DHT22;32104;50.838;4.388;2023-03-11T10:59:24;8.00;99.90
46400;DHT22;32104;50.838;4.388;2023-03-11T11:02:38;8.20;99.90
46400;DHT22;32104;50.838;4.388;2023-03-11T11:05:42;8.40;99.90
46400;DHT22;32104;50.838;4.388;2023-03-11T11:08:32;8.10;99.90
46400;DHT22;32104;50.838;4.388;2023-03-11T11:11:35;8.00;99.90
46400;DHT22;32104;50.838;4.388;2023-03-11T11:14:24;7.90;99.90
46400;DHT22;32104;50.838;4.388;2023-03-11T11:30:35;8.40;99.90
46400;DHT22;32104;50.838;4.388;2023-03-11T11:36:38;9.20;99.90
46400;DHT22;32104;50.838;4.388;2023-03-11T11:39:15;9.20;99.90
46400;DHT22;32104;50.838;4.388;2023-03-11T11:42:00;9.20;99.90
46400;DHT22;32104;50.838;4.388;2023-03-11T11:50:54;9.00;99.90
46400;DHT22;32104;50.838;4.388;2023-03-11T11:57:28;9.00;99.90
46400;DHT22;32104;50.838;4.388;2023-03-11T12:00:33;9.10;99.90
46400;DHT22;32104;50.838;4.388;2023-03-11T12:16:58;8.80;99.90
46400;DHT22;32104;50.838;4.388;2023-03-11T12:19:36;8.90;99.90
46400;DHT22;32104;50.838;4.388;2023-03-11T12:34:34;9.10;99.90
46400;DHT22;32104;50.838;4.388;2023-03-11T12:37:18;9.10;99.90
46400;DHT22;32104;50.838;4.388;2023-03-11T12:46:16;9.10;99.90
46400;DHT22;32104;50.838;4.388;2023-03-11T12:56:53;8.70;99.90
46400;DHT22;32104;50.838;4.388;2023-03-11T13:11:58;9.80;99.90
46400;DHT22;32104;50.838;4.388;2023-03-11T13:18:15;10.10;99.90
46400;DHT22;32104;50.838;4.388;2023-03-11T13:20:55;10.10;99.90
46400;DHT22;32104;50.838;4.388;2023-03-11T13:30:25;9.90;99.90
46400;DHT22;32104;50.838;4.388;2023-03-11T13:45:59;9.10;99.90
46400;DHT22;32104;50.838;4.388;2023-03-11T13:52:17;8.90;99.90
46400;DHT22;32104;50.838;4.388;2023-03-11T13:58:41;8.70;99.90
46400;DHT22;32104;50.838;4.388;2023-03-11T14:01:26;8.80;99.90
46400;DHT22;32104;50.838;4.388;2023-03-11T14:04:26;8.80;99.90
46400;DHT22;32104;50.838;4.388;2023-03-11T14:07:34;8.90;99.90
46400;DHT22;32104;50.838;4.388;2023-03-11T14:14:14;9.00;99.90
46400;DHT22;32104;50.838;4.388;2023-03-11T14:16:55;8.70;99.90
46400;DHT22;32104;50.838;4.388;2023-03-11T14:20:05;8.60;99.90
46400;DHT22;32104;50.838;4.388;2023-03-11T14:23:17;8.50;99.90
46400;DHT22;32104;50.838;4.388;2023-03-11T14:30:00;8.60;99.90
46400;DHT22;32104;50.838;4.388;2023-03-11T14:32:53;8.70;99.90
46400;DHT22;32104;50.838;4.388;2023-03-11T14:39:05;8.70;99.90
46400;DHT22;32104;50.838;4.388;2023-03-11T14:41:43;8.40;99.90
46400;DHT22;32104;50.838;4.388;2023-03-11T14:44:14;8.30;99.90
46400;DHT22;32104;50.838;4.388;2023-03-11T14:50:18;8.70;99.90
46400;DHT22;32104;50.838;4.388;2023-03-11T14:53:21;8.80;99.90
46400;DHT22;32104;50.838;4.388;2023-03-11T14:56:19;9.00;99.90
46400;DHT22;32104;50.838;4.388;2023-03-11T15:05:22;9.20;99.90
46400;DHT22;32104;50.838;4.388;2023-03-11T15:08:00;9.30;99.90
46400;DHT22;32104;50.838;4.388;2023-03-11T15:10:35;9.00;99.50
46400;DHT22;32104;50.838;4.388;2023-03-11T15:16:32;9.00;99.90
46400;DHT22;32104;50.838;4.388;2023-03-11T15:22:38;9.10;99.90
46400;DHT22;32104;50.838;4.388;2023-03-11T15:25:52;9.20;99.90
46400;DHT22;32104;50.838;4.388;2023-03-11T15:28:28;9.20;99.90
46400;DHT22;32104;50.838;4.388;2023-03-11T15:37:18;9.30;99.90
46400;DHT22;32104;50.838;4.388;2023-03-11T15:39:46;9.30;99.90
46400;DHT22;32104;50.838;4.388;2023-03-11T15:42:23;9.40;99.90
46400;DHT22;32104;50.838;4.388;2023-03-11T15:45:18;9.40;99.90
46400;DHT22;32104;50.838;4.388;2023-03-11T15:47:46;9.30;99.90
46400;DHT22;32104;50.838;4.388;2023-03-11T15:50:19;9.30;99.90
46400;DHT22;32104;50.838;4.388;2023-03-11T15:52:53;9.20;99.90
46400;DHT22;32104;50.838;4.388;2023-03-11T15:55:37;9.20;99.90
46400;DHT22;32104;50.838;4.388;2023-03-11T15:58:32;9.30;99.90
46400;DHT22;32104;50.838;4.388;2023-03-11T16:01:16;9.10;99.90
46400;DHT22;32104;50.838;4.388;2023-03-11T16:04:07;9.20;99.90
46400;DHT22;32104;50.838;4.388;2023-03-11T16:06:45;9.30;99.90
46400;DHT22;32104;50.838;4.388;2023-03-11T16:09:21;9.30;99.90
46400;DHT22;32104;50.838;4.388;2023-03-11T16:14:52;9.10;99.90
46400;DHT22;32104;50.838;4.388;2023-03-11T16:20:35;9.20;99.90
46400;DHT22;32104;50.838;4.388;2023-03-11T16:23:23;9.20;99.90
46400;DHT22;32104;50.838;4.388;2023-03-11T16:26:31;9.20;99.90
46400;DHT22;32104;50.838;4.388;2023-03-11T16:29:08;9.30;99.90
46400;DHT22;32104;50.838;4.388;2023-03-11T16:31:44;9.20;99.90
46400;DHT22;32104;50.838;4.388;2023-03-11T16:34:31;9.10;99.90
46400;DHT22;32104;50.838;4.388;2023-03-11T16:37:45;9.10;99.90
46400;DHT22;32104;50.838;4.388;2023-03-11T16:47:31;9.00;99.90
46400;DHT22;32104;50.838;4.388;2023-03-11T16:49:57;9.00;99.90
46400;DHT22;32104;50.838;4.388;2023-03-11T16:53:11;9.00;99.90
46400;DHT22;32104;50.838;4.388;2023-03-11T16:55:46;8.90;99.90
46400;DHT22;32104;50.838;4.388;2023-03-11T16:58:16;8.90;99.90
46400;DHT22;32104;50.838;4.388;2023-03-11T17:00:50;8.90;99.90
46400;DHT22;32104;50.838;4.388;2023-03-11T17:03:20;8.90;99.90
46400;DHT22;32104;50.838;4.388;2023-03-11T17:05:49;8.80;99.90
46400;DHT22;32104;50.838;4.388;2023-03-11T17:08:20;8.70;99.90
46400;DHT22;32104;50.838;4.388;2023-03-11T17:11:04;8.60;99.90
46400;DHT22;32104;50.838;4.388;2023-03-11T17:13:43;8.60;99.90
46400;DHT22;32104;50.838;4.388;2023-03-11T17:16:27;8.50;99.90
46400;DHT22;32104;50.838;4.388;2023-03-11T17:19:25;8.40;99.90
46400;DHT22;32104;50.838;4.388;2023-03-11T17:26:09;8.40;99.90
46400;DHT22;32104;50.838;4.388;2023-03-11T17:29:10;8.40;99.90
46400;DHT22;32104;50.838;4.388;2023-03-11T17:31:53;8.40;99.90
46400;DHT22;32104;50.838;4.388;2023-03-11T17:37:26;8.30;99.90
46400;DHT22;32104;50.838;4.388;2023-03-11T17:40:05;8.20;99.90
46400;DHT22;32104;50.838;4.388;2023-03-11T17:42:42;8.00;99.90
46400;DHT22;32104;50.838;4.388;2023-03-11T17:45:47;8.20;99.90
46400;DHT22;32104;50.838;4.388;2023-03-11T17:48:33;8.00;99.90
46400;DHT22;32104;50.838;4.388;2023-03-11T17:51:29;7.90;99.90
46400;DHT22;32104;50.838;4.388;2023-03-11T17:54:36;7.90;99.90
46400;DHT22;32104;50.838;4.388;2023-03-11T17:57:07;7.80;99.90
46400;DHT22;32104;50.838;4.388;2023-03-11T17:59:49;7.80;99.90
46400;DHT22;32104;50.838;4.388;2023-03-11T18:09:15;7.60;99.90
46400;DHT22;32104;50.838;4.388;2023-03-11T18:12:33;7.50;99.90
46400;DHT22;32104;50.838;4.388;2023-03-11T18:15:21;7.50;99.90
46400;DHT22;32104;50.838;4.388;2023-03-11T18:18:24;7.40;99.90
46400;DHT22;32104;50.838;4.388;2023-03-11T18:20:51;7.50;99.90
46400;DHT22;32104;50.838;4.388;2023-03-11T18:23:47;7.50;99.90
46400;DHT22;32104;50.838;4.388;2023-03-11T18:26:37;7.60;99.90
46400;DHT22;32104;50.838;4.388;2023-03-11T18:29:10;7.60;99.90
46400;DHT22;32104;50.838;4.388;2023-03-11T18:31:41;7.50;99.90
46400;DHT22;32104;50.838;4.388;2023-03-11T18:34:27;7.50;99.90
46400;DHT22;32104;50.838;4.388;2023-03-11T18:37:15;7.50;99.90
46400;DHT22;32104;50.838;4.388;2023-03-11T18:39:45;7.50;99.90
46400;DHT22;32104;50.838;4.388;2023-03-11T18:42:24;7.40;99.90
46400;DHT22;32104;50.838;4.388;2023-03-11T18:45:07;7.30;99.90
46400;DHT22;32104;50.838;4.388;2023-03-11T18:47:39;7.20;99.90
46400;DHT22;32104;50.838;4.388;2023-03-11T18:50:33;7.10;99.90
46400;DHT22;32104;50.838;4.388;2023-03-11T18:53:26;7.00;99.90
46400;DHT22;32104;50.838;4.388;2023-03-11T18:59:00;7.10;99.90
46400;DHT22;32104;50.838;4.388;2023-03-11T19:01:37;7.00;99.90
46400;DHT22;32104;50.838;4.388;2023-03-11T19:04:24;7.00;99.90
46400;DHT22;32104;50.838;4.388;2023-03-11T19:07:01;6.90;99.90
46400;DHT22;32104;50.838;4.388;2023-03-11T19:09:36;6.80;99.90
46400;DHT22;32104;50.838;4.388;2023-03-11T19:12:24;6.90;99.90
46400;DHT22;32104;50.838;4.388;2023-03-11T19:15:12;6.80;99.90
46400;DHT22;32104;50.838;4.388;2023-03-11T19:17:49;6.80;99.90
46400;DHT22;32104;50.838;4.388;2023-03-11T19:20:21;6.80;99.90
46400;DHT22;32104;50.838;4.388;2023-03-11T19:23:05;6.80;99.90
46400;DHT22;32104;50.838;4.388;2023-03-11T19:25:39;6.70;99.90
46400;DHT22;32104;50.838;4.388;2023-03-11T19:31:56;6.50;99.90
46400;DHT22;32104;50.838;4.388;2023-03-11T19:35:13;6.50;99.90
46400;DHT22;32104;50.838;4.388;2023-03-11T19:38:40;6.40;99.90
46400;DHT22;32104;50.838;4.388;2023-03-11T19:41:56;6.40;99.90
46400;DHT22;32104;50.838;4.388;2023-03-11T19:44:32;6.40;99.90
46400;DHT22;32104;50.838;4.388;2023-03-11T19:54:08;6.40;99.90
46400;DHT22;32104;50.838;4.388;2023-03-11T19:56:56;6.40;99.90
46400;DHT22;32104;50.838;4.388;2023-03-11T19:59:32;6.50;99.90
46400;DHT22;32104;50.838;4.388;2023-03-11T20:05:33;6.60;99.90
46400;DHT22;32104;50.838;4.388;2023-03-11T20:08:04;6.60;99.90
46400;DHT22;32104;50.838;4.388;2023-03-11T20:11:18;6.70;99.90
46400;DHT22;32104;50.838;4.388;2023-03-11T20:17:42;6.60;99.90
46400;DHT22;32104;50.838;4.388;2023-03-11T20:41:48;6.50;99.90
46400;DHT22;32104;50.838;4.388;2023-03-11T20:48:53;6.60;99.90
46400;DHT22;32104;50.838;4.388;2023-03-11T20:51:59;6.50;99.90
46400;DHT22;32104;50.838;4.388;2023-03-11T20:58:41;6.40;99.90
46400;DHT22;32104;50.838;4.388;2023-03-11T21:02:07;6.50;99.90
46400;DHT22;32104;50.838;4.388;2023-03-11T21:11:18;6.40;99.90
46400;DHT22;32104;50.838;4.388;2023-03-11T21:20:59;6.20;99.90
46400;DHT22;32104;50.838;4.388;2023-03-11T21:26:53;6.20;99.90
46400;DHT22;32104;50.838;4.388;2023-03-11T21:29:21;6.10;99.90
46400;DHT22;32104;50.838;4.388;2023-03-11T21:32:17;6.10;99.90
46400;DHT22;32104;50.838;4.388;2023-03-11T21:35:05;6.20;99.90
46400;DHT22;32104;50.838;4.388;2023-03-11T21:41:44;6.30;99.90
46400;DHT22;32104;50.838;4.388;2023-03-11T21:44:51;6.20;99.90
46400;DHT22;32104;50.838;4.388;2023-03-11T21:47:18;6.40;99.90
46400;DHT22;32104;50.838;4.388;2023-03-11T21:49:53;6.40;99.90
46400;DHT22;32104;50.838;4.388;2023-03-11T21:52:23;6.40;99.90
46400;DHT22;32104;50.838;4.388;2023-03-11T21:55:31;6.40;99.90
46400;DHT22;32104;50.838;4.388;2023-03-11T21:58:35;6.40;99.90
46400;DHT22;32104;50.838;4.388;2023-03-11T22:11:09;6.40;99.90
46400;DHT22;32104;50.838;4.388;2023-03-11T22:14:12;6.40;99.90
46400;DHT22;32104;50.838;4.388;2023-03-11T22:38:27;6.10;99.90